sensor_id;sensor_type;location;lat;lon;timestamp;P1;durP1;ratioP1;P2;durP2;ratioP2
17528;SDS011;8882;53.192;8.184;2022-07-30T07:05:15;4.55;;;3.55;;
17528;SDS011;8882;53.192;8.184;2022-07-30T07:07:41;4.73;;;3.00;;
17528;SDS011;8882;53.192;8.184;2022-07-30T07:10:08;4.90;;;3.13;;
17528;SDS011;8882;53.192;8.184;2022-07-30T07:12:34;5.03;;;3.33;;
17528;SDS011;8882;53.192;8.184;2022-07-30T07:14:59;5.45;;;3.05;;
17528;SDS011;8882;53.192;8.184;2022-07-30T07:17:25;5.35;;;3.45;;
17528;SDS011;8882;53.192;8.184;2022-07-30T07:19:50;4.13;;;2.88;;
17528;SDS011;8882;53.192;8.184;2022-07-30T07:22:16;4.18;;;3.08;;
17528;SDS011;8882;53.192;8.184;2022-07-30T07:24:41;3.00;;;2.42;;
17528;SDS011;8882;53.192;8.184;2022-07-30T07:27:07;8.25;;;2.90;;
17528;SDS011;8882;53.192;8.184;2022-07-30T07:29:33;4.53;;;2.80;;
17528;SDS011;8882;53.192;8.184;2022-07-30T07:31:58;6.13;;;3.50;;
17528;SDS011;8882;53.192;8.184;2022-07-30T07:34:24;3.60;;;3.10;;
17528;SDS011;8882;53.192;8.184;2022-07-30T07:36:49;3.20;;;2.67;;
17528;SDS011;8882;53.192;8.184;2022-07-30T07:39:15;4.18;;;2.53;;
17528;SDS011;8882;53.192;8.184;2022-07-30T07:41:40;7.47;;;3.08;;
17528;SDS011;8882;53.192;8.184;2022-07-30T07:44:06;3.55;;;2.65;;
17528;SDS011;8882;53.192;8.184;2022-07-30T07:46:32;6.68;;;3.03;;
17528;SDS011;8882;53.192;8.184;2022-07-30T07:48:58;5.70;;;2.67;;
17528;SDS011;8882;53.192;8.184;2022-07-30T07:51:23;2.90;;;2.60;;
17528;SDS011;8882;53.192;8.184;2022-07-30T07:53:49;3.78;;;2.60;;
17528;SDS011;8882;53.192;8.184;2022-07-30T07:56:14;3.15;;;2.22;;
17528;SDS011;8882;53.192;8.184;2022-07-30T07:58:40;5.65;;;2.53;;
17528;SDS011;8882;53.192;8.184;2022-07-30T08:01:05;3.60;;;2.10;;
17528;SDS011;8882;53.192;8.184;2022-07-30T08:03:31;2.55;;;1.95;;
17528;SDS011;8882;53.192;8.184;2022-07-30T08:05:56;3.08;;;2.10;;
17528;SDS011;8882;53.192;8.184;2022-07-30T08:08:22;2.50;;;2.08;;
17528;SDS011;8882;53.192;8.184;2022-07-30T08:10:48;2.95;;;2.15;;
17528;SDS011;8882;53.192;8.184;2022-07-30T08:13:14;5.47;;;2.22;;
17528;SDS011;8882;53.192;8.184;2022-07-30T08:15:40;2.47;;;1.88;;
17528;SDS011;8882;53.192;8.184;2022-07-30T08:18:06;5.28;;;2.35;;
17528;SDS011;8882;53.192;8.184;2022-07-30T08:20:32;3.53;;;2.08;;
17528;SDS011;8882;53.192;8.184;2022-07-30T08:22:59;2.47;;;2.10;;
17528;SDS011;8882;53.192;8.184;2022-07-30T08:25:26;5.43;;;2.22;;
17528;SDS011;8882;53.192;8.184;2022-07-30T08:27:52;4.13;;;2.20;;
17528;SDS011;8882;53.192;8.184;2022-07-30T08:30:17;4.18;;;1.75;;
17528;SDS011;8882;53.192;8.184;2022-07-30T08:32:43;3.70;;;2.17;;
17528;SDS011;8882;53.192;8.184;2022-07-30T08:35:09;2.95;;;1.90;;
17528;SDS011;8882;53.192;8.184;2022-07-30T08:37:35;4.07;;;2.08;;
17528;SDS011;8882;53.192;8.184;2022-07-30T08:40:01;5.35;;;2.20;;
17528;SDS011;8882;53.192;8.184;2022-07-30T08:42:28;6.28;;;2.33;;
17528;SDS011;8882;53.192;8.184;2022-07-30T08:44:57;5.30;;;2.20;;
17528;SDS011;8882;53.192;8.184;2022-07-30T08:47:25;4.85;;;1.88;;
17528;SDS011;8882;53.192;8.184;2022-07-30T08:49:54;3.00;;;1.80;;
17528;SDS011;8882;53.192;8.184;2022-07-30T08:52:25;2.00;;;1.67;;
17528;SDS011;8882;53.192;8.184;2022-07-30T08:54:51;2.88;;;1.63;;
17528;SDS011;8882;53.192;8.184;2022-07-30T08:57:17;2.67;;;1.75;;
17528;SDS011;8882;53.192;8.184;2022-07-30T08:59:43;3.10;;;2.10;;
17528;SDS011;8882;53.192;8.184;2022-07-30T09:02:09;3.72;;;2.08;;
17528;SDS011;8882;53.192;8.184;2022-07-30T09:04:35;3.95;;;1.83;;
17528;SDS011;8882;53.192;8.184;2022-07-30T09:07:00;2.00;;;1.80;;
17528;SDS011;8882;53.192;8.184;2022-07-30T09:09:26;3.97;;;1.92;;
17528;SDS011;8882;53.192;8.184;2022-07-30T09:11:52;1.80;;;1.55;;
17528;SDS011;8882;53.192;8.184;2022-07-30T09:14:17;3.55;;;1.80;;
17528;SDS011;8882;53.192;8.184;2022-07-30T09:16:43;4.45;;;1.58;;
17528;SDS011;8882;53.192;8.184;2022-07-30T09:19:13;4.05;;;1.60;;
17528;SDS011;8882;53.192;8.184;2022-07-30T09:21:55;1.30;;;1.20;;
17528;SDS011;8882;53.192;8.184;2022-07-30T09:24:22;2.72;;;1.48;;
17528;SDS011;8882;53.192;8.184;2022-07-30T09:29:25;2.42;;;1.70;;
17528;SDS011;8882;53.192;8.184;2022-07-30T09:31:54;2.20;;;2.00;;
17528;SDS011;8882;53.192;8.184;2022-07-30T09:37:00;2.83;;;1.60;;
17528;SDS011;8882;53.192;8.184;2022-07-30T09:39:28;2.55;;;1.75;;
17528;SDS011;8882;53.192;8.184;2022-07-30T09:41:54;2.90;;;1.35;;
17528;SDS011;8882;53.192;8.184;2022-07-30T09:44:27;2.08;;;1.38;;
17528;SDS011;8882;53.192;8.184;2022-07-30T09:46:54;3.78;;;1.80;;
17528;SDS011;8882;53.192;8.184;2022-07-30T09:49:21;2.63;;;1.40;;
17528;SDS011;8882;53.192;8.184;2022-07-30T09:51:48;2.90;;;1.38;;
17528;SDS011;8882;53.192;8.184;2022-07-30T09:54:14;1.58;;;1.35;;
17528;SDS011;8882;53.192;8.184;2022-07-30T09:56:40;1.65;;;1.55;;
17528;SDS011;8882;53.192;8.184;2022-07-30T09:59:12;2.20;;;1.33;;
17528;SDS011;8882;53.192;8.184;2022-07-30T10:01:51;2.08;;;1.70;;
17528;SDS011;8882;53.192;8.184;2022-07-30T10:06:57;2.67;;;1.50;;
17528;SDS011;8882;53.192;8.184;2022-07-30T10:09:30;4.72;;;1.48;;
17528;SDS011;8882;53.192;8.184;2022-07-30T10:12:01;2.03;;;1.70;;
17528;SDS011;8882;53.192;8.184;2022-07-30T10:14:29;3.58;;;1.65;;
17528;SDS011;8882;53.192;8.184;2022-07-30T10:16:59;1.73;;;1.60;;
17528;SDS011;8882;53.192;8.184;2022-07-30T10:19:25;2.20;;;2.00;;
17528;SDS011;8882;53.192;8.184;2022-07-30T10:21:52;2.58;;;1.70;;
17528;SDS011;8882;53.192;8.184;2022-07-30T10:24:21;2.83;;;1.63;;
17528;SDS011;8882;53.192;8.184;2022-07-30T10:26:46;1.55;;;1.45;;
17528;SDS011;8882;53.192;8.184;2022-07-30T10:29:14;4.78;;;1.75;;
17528;SDS011;8882;53.192;8.184;2022-07-30T10:31:41;4.13;;;1.73;;
17528;SDS011;8882;53.192;8.184;2022-07-30T10:34:08;2.67;;;1.63;;
17528;SDS011;8882;53.192;8.184;2022-07-30T10:36:34;4.03;;;1.70;;
17528;SDS011;8882;53.192;8.184;2022-07-30T10:39:00;7.30;;;1.55;;
17528;SDS011;8882;53.192;8.184;2022-07-30T10:49:30;4.68;;;1.70;;
17528;SDS011;8882;53.192;8.184;2022-07-30T10:51:56;3.97;;;1.70;;
17528;SDS011;8882;53.192;8.184;2022-07-30T10:57:12;2.13;;;1.67;;
17528;SDS011;8882;53.192;8.184;2022-07-30T11:02:23;1.60;;;1.48;;
17528;SDS011;8882;53.192;8.184;2022-07-30T11:04:49;2.75;;;1.50;;
17528;SDS011;8882;53.192;8.184;2022-07-30T11:09:48;3.33;;;1.60;;
17528;SDS011;8882;53.192;8.184;2022-07-30T11:12:14;1.58;;;1.48;;
17528;SDS011;8882;53.192;8.184;2022-07-30T11:17:13;2.58;;;1.75;;
17528;SDS011;8882;53.192;8.184;2022-07-30T11:22:45;5.25;;;1.92;;
17528;SDS011;8882;53.192;8.184;2022-07-30T11:25:37;3.38;;;1.80;;
17528;SDS011;8882;53.192;8.184;2022-07-30T11:27:59;1.60;;;1.50;;
17528;SDS011;8882;53.192;8.184;2022-07-30T11:32:55;4.50;;;1.70;;
17528;SDS011;8882;53.192;8.184;2022-07-30T11:35:22;2.30;;;1.67;;
17528;SDS011;8882;53.192;8.184;2022-07-30T11:37:55;2.42;;;1.63;;
17528;SDS011;8882;53.192;8.184;2022-07-30T11:40:22;3.90;;;1.77;;
17528;SDS011;8882;53.192;8.184;2022-07-30T11:42:49;2.80;;;2.05;;
17528;SDS011;8882;53.192;8.184;2022-07-30T11:47:49;3.53;;;1.80;;
17528;SDS011;8882;53.192;8.184;2022-07-30T11:50:16;2.47;;;1.38;;
17528;SDS011;8882;53.192;8.184;2022-07-30T11:52:42;1.60;;;1.50;;
17528;SDS011;8882;53.192;8.184;2022-07-30T11:55:12;2.67;;;1.70;;
17528;SDS011;8882;53.192;8.184;2022-07-30T11:57:57;2.17;;;1.42;;
17528;SDS011;8882;53.192;8.184;2022-07-30T12:00:25;3.08;;;1.58;;
17528;SDS011;8882;53.192;8.184;2022-07-30T12:02:57;2.83;;;1.60;;
17528;SDS011;8882;53.192;8.184;2022-07-30T12:05:24;1.88;;;1.60;;
17528;SDS011;8882;53.192;8.184;2022-07-30T12:07:54;3.72;;;1.75;;
17528;SDS011;8882;53.192;8.184;2022-07-30T12:10:22;3.30;;;1.75;;
17528;SDS011;8882;53.192;8.184;2022-07-30T12:12:47;2.97;;;1.73;;
17528;SDS011;8882;53.192;8.184;2022-07-30T12:15:29;2.35;;;2.05;;
17528;SDS011;8882;53.192;8.184;2022-07-30T12:17:59;2.72;;;1.52;;
17528;SDS011;8882;53.192;8.184;2022-07-30T12:20:25;4.32;;;1.92;;
17528;SDS011;8882;53.192;8.184;2022-07-30T12:22:51;2.90;;;1.55;;
17528;SDS011;8882;53.192;8.184;2022-07-30T12:25:17;2.75;;;1.90;;
17528;SDS011;8882;53.192;8.184;2022-07-30T12:27:46;1.95;;;1.70;;
17528;SDS011;8882;53.192;8.184;2022-07-30T12:30:13;3.22;;;1.63;;
17528;SDS011;8882;53.192;8.184;2022-07-30T12:32:41;1.73;;;1.55;;
17528;SDS011;8882;53.192;8.184;2022-07-30T12:35:07;5.60;;;2.13;;
17528;SDS011;8882;53.192;8.184;2022-07-30T12:37:34;3.58;;;1.50;;
17528;SDS011;8882;53.192;8.184;2022-07-30T12:42:32;3.88;;;1.52;;
17528;SDS011;8882;53.192;8.184;2022-07-30T12:44:57;3.83;;;2.47;;
17528;SDS011;8882;53.192;8.184;2022-07-30T12:47:25;2.08;;;1.70;;
17528;SDS011;8882;53.192;8.184;2022-07-30T12:49:53;2.83;;;1.95;;
17528;SDS011;8882;53.192;8.184;2022-07-30T12:52:20;3.63;;;1.63;;
17528;SDS011;8882;53.192;8.184;2022-07-30T12:54:56;1.55;;;1.45;;
17528;SDS011;8882;53.192;8.184;2022-07-30T12:57:22;2.10;;;1.70;;
17528;SDS011;8882;53.192;8.184;2022-07-30T12:59:58;2.28;;;1.75;;
17528;SDS011;8882;53.192;8.184;2022-07-30T13:02:31;1.80;;;1.48;;
17528;SDS011;8882;53.192;8.184;2022-07-30T13:04:58;3.53;;;1.67;;
17528;SDS011;8882;53.192;8.184;2022-07-30T13:07:23;3.40;;;2.05;;
17528;SDS011;8882;53.192;8.184;2022-07-30T13:10:08;2.83;;;1.55;;
17528;SDS011;8882;53.192;8.184;2022-07-30T13:12:35;2.58;;;1.63;;
17528;SDS011;8882;53.192;8.184;2022-07-30T13:17:29;1.58;;;1.48;;
17528;SDS011;8882;53.192;8.184;2022-07-30T13:19:54;2.63;;;1.90;;
17528;SDS011;8882;53.192;8.184;2022-07-30T13:22:20;5.18;;;2.65;;
17528;SDS011;8882;53.192;8.184;2022-07-30T13:24:46;1.92;;;1.83;;
17528;SDS011;8882;53.192;8.184;2022-07-30T13:27:11;2.00;;;1.80;;
17528;SDS011;8882;53.192;8.184;2022-07-30T13:29:37;3.08;;;1.77;;
17528;SDS011;8882;53.192;8.184;2022-07-30T13:32:02;4.40;;;1.83;;
17528;SDS011;8882;53.192;8.184;2022-07-30T13:34:28;2.13;;;1.90;;
17528;SDS011;8882;53.192;8.184;2022-07-30T13:36:53;3.70;;;1.70;;
17528;SDS011;8882;53.192;8.184;2022-07-30T13:39:19;2.58;;;1.92;;
17528;SDS011;8882;53.192;8.184;2022-07-30T13:41:44;2.85;;;1.50;;
17528;SDS011;8882;53.192;8.184;2022-07-30T13:44:10;2.72;;;1.80;;
17528;SDS011;8882;53.192;8.184;2022-07-30T13:46:35;2.90;;;1.88;;
17528;SDS011;8882;53.192;8.184;2022-07-30T13:49:01;4.95;;;2.00;;
17528;SDS011;8882;53.192;8.184;2022-07-30T13:51:28;2.13;;;1.95;;
17528;SDS011;8882;53.192;8.184;2022-07-30T13:53:53;2.60;;;2.00;;
17528;SDS011;8882;53.192;8.184;2022-07-30T13:56:19;3.42;;;1.92;;
17528;SDS011;8882;53.192;8.184;2022-07-30T13:58:45;4.38;;;2.30;;
17528;SDS011;8882;53.192;8.184;2022-07-30T14:01:11;5.00;;;1.80;;
17528;SDS011;8882;53.192;8.184;2022-07-30T14:03:36;2.08;;;1.98;;
17528;SDS011;8882;53.192;8.184;2022-07-30T14:06:02;2.35;;;2.15;;
17528;SDS011;8882;53.192;8.184;2022-07-30T14:08:27;2.35;;;2.10;;
17528;SDS011;8882;53.192;8.184;2022-07-30T14:10:55;2.97;;;2.03;;
17528;SDS011;8882;53.192;8.184;2022-07-30T14:13:22;4.20;;;2.47;;
17528;SDS011;8882;53.192;8.184;2022-07-30T14:15:47;4.68;;;2.08;;
17528;SDS011;8882;53.192;8.184;2022-07-30T14:18:13;8.75;;;2.30;;
17528;SDS011;8882;53.192;8.184;2022-07-30T14:20:39;2.22;;;2.00;;
17528;SDS011;8882;53.192;8.184;2022-07-30T14:23:04;2.58;;;2.20;;
17528;SDS011;8882;53.192;8.184;2022-07-30T14:25:30;3.63;;;2.33;;
17528;SDS011;8882;53.192;8.184;2022-07-30T14:27:55;3.42;;;2.20;;
17528;SDS011;8882;53.192;8.184;2022-07-30T14:30:21;3.10;;;2.03;;
17528;SDS011;8882;53.192;8.184;2022-07-30T14:32:48;2.75;;;1.92;;
17528;SDS011;8882;53.192;8.184;2022-07-30T14:35:14;4.55;;;2.10;;
17528;SDS011;8882;53.192;8.184;2022-07-30T14:37:39;2.15;;;1.92;;
17528;SDS011;8882;53.192;8.184;2022-07-30T14:40:06;3.40;;;2.20;;
17528;SDS011;8882;53.192;8.184;2022-07-30T14:42:33;2.20;;;1.90;;
17528;SDS011;8882;53.192;8.184;2022-07-30T14:45:00;3.97;;;2.20;;
17528;SDS011;8882;53.192;8.184;2022-07-30T14:47:26;3.40;;;1.80;;
17528;SDS011;8882;53.192;8.184;2022-07-30T14:49:51;2.58;;;1.63;;
17528;SDS011;8882;53.192;8.184;2022-07-30T14:52:17;2.28;;;1.60;;
17528;SDS011;8882;53.192;8.184;2022-07-30T14:54:42;2.35;;;1.80;;
17528;SDS011;8882;53.192;8.184;2022-07-30T14:57:08;3.67;;;2.00;;
17528;SDS011;8882;53.192;8.184;2022-07-30T14:59:34;1.88;;;1.73;;
17528;SDS011;8882;53.192;8.184;2022-07-30T15:01:59;2.25;;;1.90;;
17528;SDS011;8882;53.192;8.184;2022-07-30T15:04:25;4.28;;;2.40;;
17528;SDS011;8882;53.192;8.184;2022-07-30T15:06:50;1.90;;;1.80;;
17528;SDS011;8882;53.192;8.184;2022-07-30T15:09:16;2.85;;;1.60;;
17528;SDS011;8882;53.192;8.184;2022-07-30T15:11:41;3.22;;;1.55;;
17528;SDS011;8882;53.192;8.184;2022-07-30T15:14:07;1.88;;;1.77;;
17528;SDS011;8882;53.192;8.184;2022-07-30T15:16:33;3.35;;;2.05;;
17528;SDS011;8882;53.192;8.184;2022-07-30T15:18:58;2.78;;;2.00;;
17528;SDS011;8882;53.192;8.184;2022-07-30T15:21:24;3.85;;;1.92;;
17528;SDS011;8882;53.192;8.184;2022-07-30T15:23:49;2.60;;;2.28;;
17528;SDS011;8882;53.192;8.184;2022-07-30T15:26:15;4.13;;;2.30;;
17528;SDS011;8882;53.192;8.184;2022-07-30T15:28:40;5.68;;;2.10;;
17528;SDS011;8882;53.192;8.184;2022-07-30T15:31:06;2.47;;;1.83;;
17528;SDS011;8882;53.192;8.184;2022-07-30T15:33:32;3.22;;;2.22;;
17528;SDS011;8882;53.192;8.184;2022-07-30T15:35:58;3.13;;;1.92;;
17528;SDS011;8882;53.192;8.184;2022-07-30T15:38:23;2.10;;;1.73;;
17528;SDS011;8882;53.192;8.184;2022-07-30T15:40:49;5.25;;;2.10;;
17528;SDS011;8882;53.192;8.184;2022-07-30T15:43:14;3.47;;;2.75;;
17528;SDS011;8882;53.192;8.184;2022-07-30T15:45:39;4.32;;;2.72;;
17528;SDS011;8882;53.192;8.184;2022-07-30T15:48:06;4.57;;;3.10;;
17528;SDS011;8882;53.192;8.184;2022-07-30T15:50:32;3.05;;;2.70;;
17528;SDS011;8882;53.192;8.184;2022-07-30T15:52:57;4.57;;;2.53;;
17528;SDS011;8882;53.192;8.184;2022-07-30T15:55:23;4.28;;;2.97;;
17528;SDS011;8882;53.192;8.184;2022-07-30T15:57:48;3.47;;;2.40;;
17528;SDS011;8882;53.192;8.184;2022-07-30T16:00:14;5.60;;;2.55;;
17528;SDS011;8882;53.192;8.184;2022-07-30T16:02:40;4.25;;;3.38;;
17528;SDS011;8882;53.192;8.184;2022-07-30T16:05:06;5.78;;;3.00;;
17528;SDS011;8882;53.192;8.184;2022-07-30T16:07:33;3.42;;;2.80;;
17528;SDS011;8882;53.192;8.184;2022-07-30T16:09:58;3.15;;;2.70;;
17528;SDS011;8882;53.192;8.184;2022-07-30T16:12:24;3.15;;;2.60;;
17528;SDS011;8882;53.192;8.184;2022-07-30T16:14:49;4.03;;;2.83;;
17528;SDS011;8882;53.192;8.184;2022-07-30T16:17:15;8.10;;;2.80;;
17528;SDS011;8882;53.192;8.184;2022-07-30T16:19:41;3.17;;;2.70;;
17528;SDS011;8882;53.192;8.184;2022-07-30T16:22:07;5.03;;;2.55;;
17528;SDS011;8882;53.192;8.184;2022-07-30T16:24:32;4.07;;;2.47;;
17528;SDS011;8882;53.192;8.184;2022-07-30T16:26:58;3.65;;;2.30;;
17528;SDS011;8882;53.192;8.184;2022-07-30T16:29:24;3.70;;;2.83;;
17528;SDS011;8882;53.192;8.184;2022-07-30T16:31:50;4.05;;;2.67;;
17528;SDS011;8882;53.192;8.184;2022-07-30T16:34:15;4.47;;;2.78;;
17528;SDS011;8882;53.192;8.184;2022-07-30T16:36:41;5.20;;;2.90;;
17528;SDS011;8882;53.192;8.184;2022-07-30T16:39:07;2.92;;;2.35;;
17528;SDS011;8882;53.192;8.184;2022-07-30T16:41:33;3.60;;;2.67;;
17528;SDS011;8882;53.192;8.184;2022-07-30T16:43:59;3.35;;;2.45;;
17528;SDS011;8882;53.192;8.184;2022-07-30T16:46:24;4.50;;;2.40;;
17528;SDS011;8882;53.192;8.184;2022-07-30T16:48:50;8.90;;;2.85;;
17528;SDS011;8882;53.192;8.184;2022-07-30T16:51:15;4.50;;;2.47;;
17528;SDS011;8882;53.192;8.184;2022-07-30T16:53:41;2.55;;;2.35;;
17528;SDS011;8882;53.192;8.184;2022-07-30T16:56:06;5.50;;;2.67;;
17528;SDS011;8882;53.192;8.184;2022-07-30T16:58:32;2.72;;;2.35;;
17528;SDS011;8882;53.192;8.184;2022-07-30T17:00:57;2.53;;;2.33;;
17528;SDS011;8882;53.192;8.184;2022-07-30T17:03:23;4.63;;;2.58;;
17528;SDS011;8882;53.192;8.184;2022-07-30T17:05:49;3.55;;;2.45;;
17528;SDS011;8882;53.192;8.184;2022-07-30T17:08:15;4.32;;;2.53;;
17528;SDS011;8882;53.192;8.184;2022-07-30T17:10:41;3.20;;;2.35;;
17528;SDS011;8882;53.192;8.184;2022-07-30T17:13:06;2.60;;;2.15;;
17528;SDS011;8882;53.192;8.184;2022-07-30T17:15:32;3.65;;;2.50;;
17528;SDS011;8882;53.192;8.184;2022-07-30T17:17:58;4.03;;;2.55;;
17528;SDS011;8882;53.192;8.184;2022-07-30T17:20:24;2.67;;;2.47;;
17528;SDS011;8882;53.192;8.184;2022-07-30T17:22:49;5.03;;;2.30;;
17528;SDS011;8882;53.192;8.184;2022-07-30T17:25:15;4.07;;;2.30;;
17528;SDS011;8882;53.192;8.184;2022-07-30T17:27:40;4.60;;;3.17;;
17528;SDS011;8882;53.192;8.184;2022-07-30T17:30:06;5.15;;;2.75;;
17528;SDS011;8882;53.192;8.184;2022-07-30T17:32:32;2.80;;;2.30;;
17528;SDS011;8882;53.192;8.184;2022-07-30T17:34:57;4.07;;;2.13;;
17528;SDS011;8882;53.192;8.184;2022-07-30T17:37:23;3.75;;;2.50;;
17528;SDS011;8882;53.192;8.184;2022-07-30T17:39:48;4.05;;;2.80;;
17528;SDS011;8882;53.192;8.184;2022-07-30T17:42:14;3.30;;;2.00;;
17528;SDS011;8882;53.192;8.184;2022-07-30T17:44:40;3.22;;;1.83;;
17528;SDS011;8882;53.192;8.184;2022-07-30T17:47:06;3.92;;;1.90;;
17528;SDS011;8882;53.192;8.184;2022-07-30T17:49:33;3.67;;;1.60;;
17528;SDS011;8882;53.192;8.184;2022-07-30T17:51:59;3.08;;;1.98;;
17528;SDS011;8882;53.192;8.184;2022-07-30T17:54:25;1.98;;;1.75;;
17528;SDS011;8882;53.192;8.184;2022-07-30T17:56:51;2.10;;;1.70;;
17528;SDS011;8882;53.192;8.184;2022-07-30T17:59:17;1.75;;;1.63;;
17528;SDS011;8882;53.192;8.184;2022-07-30T18:01:42;3.78;;;1.70;;
17528;SDS011;8882;53.192;8.184;2022-07-30T18:04:08;3.72;;;1.67;;
17528;SDS011;8882;53.192;8.184;2022-07-30T18:06:33;3.13;;;1.85;;
17528;SDS011;8882;53.192;8.184;2022-07-30T18:08:59;3.10;;;1.63;;
17528;SDS011;8882;53.192;8.184;2022-07-30T18:11:25;3.78;;;1.88;;
17528;SDS011;8882;53.192;8.184;2022-07-30T18:13:51;2.65;;;2.13;;
17528;SDS011;8882;53.192;8.184;2022-07-30T18:16:16;2.05;;;1.60;;
17528;SDS011;8882;53.192;8.184;2022-07-30T18:18:42;3.28;;;2.50;;
17528;SDS011;8882;53.192;8.184;2022-07-30T18:21:07;4.00;;;1.92;;
17528;SDS011;8882;53.192;8.184;2022-07-30T18:23:33;1.75;;;1.65;;
17528;SDS011;8882;53.192;8.184;2022-07-30T18:25:58;3.40;;;1.67;;
17528;SDS011;8882;53.192;8.184;2022-07-30T18:28:24;3.28;;;1.50;;
17528;SDS011;8882;53.192;8.184;2022-07-30T18:30:50;3.08;;;1.73;;
17528;SDS011;8882;53.192;8.184;2022-07-30T18:33:15;1.60;;;1.50;;
17528;SDS011;8882;53.192;8.184;2022-07-30T18:35:41;1.83;;;1.40;;
17528;SDS011;8882;53.192;8.184;2022-07-30T18:38:07;1.67;;;1.20;;
17528;SDS011;8882;53.192;8.184;2022-07-30T18:40:33;2.22;;;1.40;;
17528;SDS011;8882;53.192;8.184;2022-07-30T18:42:58;1.17;;;1.08;;
17528;SDS011;8882;53.192;8.184;2022-07-30T18:45:24;2.88;;;1.45;;
17528;SDS011;8882;53.192;8.184;2022-07-30T18:47:52;2.45;;;1.30;;
17528;SDS011;8882;53.192;8.184;2022-07-30T18:50:19;2.40;;;1.40;;
17528;SDS011;8882;53.192;8.184;2022-07-30T18:52:44;1.02;;;1.00;;
17528;SDS011;8882;53.192;8.184;2022-07-30T18:55:11;1.55;;;1.20;;
17528;SDS011;8882;53.192;8.184;2022-07-30T18:57:37;2.28;;;1.10;;
17528;SDS011;8882;53.192;8.184;2022-07-30T19:00:03;1.58;;;1.48;;
17528;SDS011;8882;53.192;8.184;2022-07-30T19:02:32;2.03;;;1.30;;
17528;SDS011;8882;53.192;8.184;2022-07-30T19:05:00;1.20;;;1.13;;
17528;SDS011;8882;53.192;8.184;2022-07-30T19:07:25;1.63;;;1.25;;
17528;SDS011;8882;53.192;8.184;2022-07-30T19:09:51;2.65;;;0.95;;
17528;SDS011;8882;53.192;8.184;2022-07-30T19:12:19;1.02;;;1.00;;
17528;SDS011;8882;53.192;8.184;2022-07-30T19:14:46;4.72;;;1.40;;
17528;SDS011;8882;53.192;8.184;2022-07-30T19:17:11;2.72;;;1.30;;
17528;SDS011;8882;53.192;8.184;2022-07-30T19:19:37;2.67;;;1.27;;
17528;SDS011;8882;53.192;8.184;2022-07-30T19:22:02;1.10;;;0.90;;
17528;SDS011;8882;53.192;8.184;2022-07-30T19:24:28;1.63;;;1.30;;
17528;SDS011;8882;53.192;8.184;2022-07-30T19:26:54;1.50;;;1.20;;
17528;SDS011;8882;53.192;8.184;2022-07-30T19:29:20;1.40;;;1.17;;
17528;SDS011;8882;53.192;8.184;2022-07-30T19:31:46;1.80;;;1.40;;
17528;SDS011;8882;53.192;8.184;2022-07-30T19:34:11;2.33;;;1.48;;
17528;SDS011;8882;53.192;8.184;2022-07-30T19:36:37;1.52;;;1.42;;
17528;SDS011;8882;53.192;8.184;2022-07-30T19:39:03;1.17;;;0.95;;
17528;SDS011;8882;53.192;8.184;2022-07-30T19:41:29;3.37;;;1.40;;
17528;SDS011;8882;53.192;8.184;2022-07-30T19:44:01;3.20;;;1.20;;
17528;SDS011;8882;53.192;8.184;2022-07-30T19:46:28;1.40;;;1.13;;
17528;SDS011;8882;53.192;8.184;2022-07-30T19:48:53;5.05;;;1.30;;
17528;SDS011;8882;53.192;8.184;2022-07-30T19:51:19;1.60;;;1.20;;
17528;SDS011;8882;53.192;8.184;2022-07-30T19:53:44;2.13;;;1.42;;
17528;SDS011;8882;53.192;8.184;2022-07-30T19:56:10;1.10;;;1.00;;
17528;SDS011;8882;53.192;8.184;2022-07-30T19:58:35;0.97;;;0.97;;
17528;SDS011;8882;53.192;8.184;2022-07-30T20:01:01;1.63;;;1.33;;
17528;SDS011;8882;53.192;8.184;2022-07-30T20:03:27;2.10;;;1.10;;
17528;SDS011;8882;53.192;8.184;2022-07-30T20:05:53;1.50;;;1.40;;
17528;SDS011;8882;53.192;8.184;2022-07-30T20:08:19;1.00;;;1.00;;
17528;SDS011;8882;53.192;8.184;2022-07-30T20:10:45;1.70;;;1.07;;
17528;SDS011;8882;53.192;8.184;2022-07-30T20:13:11;2.23;;;1.30;;
17528;SDS011;8882;53.192;8.184;2022-07-30T20:15:38;2.70;;;1.17;;
17528;SDS011;8882;53.192;8.184;2022-07-30T20:18:03;1.60;;;1.30;;
17528;SDS011;8882;53.192;8.184;2022-07-30T20:20:29;2.20;;;1.20;;
17528;SDS011;8882;53.192;8.184;2022-07-30T20:22:54;1.80;;;1.20;;
17528;SDS011;8882;53.192;8.184;2022-07-30T20:25:20;1.33;;;1.00;;
17528;SDS011;8882;53.192;8.184;2022-07-30T20:27:45;1.90;;;1.03;;
17528;SDS011;8882;53.192;8.184;2022-07-30T20:30:11;0.87;;;0.87;;
17528;SDS011;8882;53.192;8.184;2022-07-30T20:32:37;2.10;;;1.27;;
17528;SDS011;8882;53.192;8.184;2022-07-30T20:35:06;1.33;;;1.13;;
17528;SDS011;8882;53.192;8.184;2022-07-30T20:37:32;0.93;;;0.93;;
17528;SDS011;8882;53.192;8.184;2022-07-30T20:39:59;1.67;;;1.23;;
17528;SDS011;8882;53.192;8.184;2022-07-30T20:42:24;2.87;;;1.20;;
17528;SDS011;8882;53.192;8.184;2022-07-30T20:44:50;1.77;;;1.17;;
17528;SDS011;8882;53.192;8.184;2022-07-30T20:47:17;2.23;;;1.20;;
17528;SDS011;8882;53.192;8.184;2022-07-30T20:49:45;5.33;;;1.53;;
17528;SDS011;8882;53.192;8.184;2022-07-30T20:52:11;1.60;;;1.23;;
17528;SDS011;8882;53.192;8.184;2022-07-30T20:54:37;1.83;;;1.43;;
17528;SDS011;8882;53.192;8.184;2022-07-30T20:57:04;1.50;;;1.27;;
17528;SDS011;8882;53.192;8.184;2022-07-30T20:59:34;1.80;;;1.17;;
